createdAt,value
2022-10-24T00:01:12.924Z,17.27
2022-10-24T00:03:39.362Z,16.90
2022-10-24T00:06:07.038Z,17.63
2022-10-24T00:08:34.396Z,17.03
2022-10-24T00:11:00.914Z,17.33
2022-10-24T00:13:27.368Z,16.40
2022-10-24T00:15:54.013Z,17.27
2022-10-24T00:18:20.426Z,17.47
2022-10-24T00:20:46.880Z,17.87
2022-10-24T00:23:13.756Z,17.53
2022-10-24T00:25:40.534Z,18.03
2022-10-24T00:28:06.982Z,17.23
2022-10-24T00:30:33.385Z,17.63
2022-10-24T00:32:59.817Z,17.43
2022-10-24T00:35:26.219Z,18.00
2022-10-24T00:37:52.723Z,17.33
2022-10-24T00:40:20.071Z,18.43
2022-10-24T00:42:46.780Z,18.50
2022-10-24T00:45:32.109Z,19.03
2022-10-24T00:47:58.579Z,18.97
2022-10-24T00:50:25.024Z,18.20
2022-10-24T00:52:51.898Z,17.73
2022-10-24T00:55:18.299Z,17.00
2022-10-24T00:57:46.467Z,17.57
2022-10-24T01:00:15.964Z,17.47
2022-10-24T01:02:43.197Z,16.83
2022-10-24T01:05:10.594Z,16.73
2022-10-24T01:07:49.466Z,17.13
2022-10-24T01:10:15.863Z,15.70
2022-10-24T01:13:00.725Z,18.00
2022-10-24T01:15:41.993Z,16.67
2022-10-24T01:18:17.409Z,18.00
2022-10-24T01:20:56.502Z,18.40
2022-10-24T01:23:41.438Z,16.90
2022-10-24T01:26:19.892Z,16.77
2022-10-24T01:28:52.401Z,17.17
2022-10-24T01:31:25.675Z,15.60
2022-10-24T01:33:55.590Z,14.63
2022-10-24T01:36:30.890Z,14.43
2022-10-24T01:38:59.785Z,12.47
2022-10-24T01:41:28.679Z,12.63
2022-10-24T01:43:58.038Z,12.00
2022-10-24T01:46:29.412Z,13.53
2022-10-24T01:48:58.210Z,12.03
2022-10-24T01:51:26.783Z,12.30
2022-10-24T01:53:53.997Z,12.57
2022-10-24T01:56:20.508Z,12.40
2022-10-24T01:58:46.903Z,11.77
2022-10-24T02:01:16.473Z,11.87
2022-10-24T02:03:48.236Z,11.50
2022-10-24T02:06:40.686Z,11.53
2022-10-24T02:09:09.469Z,11.73
2022-10-24T02:11:36.696Z,12.07
2022-10-24T02:14:06.204Z,11.93
2022-10-24T02:16:33.324Z,11.70
2022-10-24T02:19:00.365Z,11.47
2022-10-24T02:21:26.831Z,10.90
2022-10-24T02:23:53.234Z,11.07
2022-10-24T02:26:27.454Z,11.33
2022-10-24T02:28:55.440Z,11.43
2022-10-24T02:31:24.109Z,12.27
2022-10-24T02:33:51.780Z,11.13
2022-10-24T02:36:19.987Z,11.00
2022-10-24T02:38:47.390Z,12.30
2022-10-24T02:41:16.610Z,11.30
2022-10-24T02:43:44.463Z,11.43
2022-10-24T02:46:11.145Z,12.13
2022-10-24T02:48:41.523Z,11.27
2022-10-24T02:51:08.998Z,12.23
2022-10-24T02:53:36.262Z,11.90
2022-10-24T02:56:02.989Z,12.10
2022-10-24T02:58:29.380Z,12.37
2022-10-24T03:00:55.816Z,12.90
2022-10-24T03:03:22.508Z,13.90
2022-10-24T03:05:48.889Z,12.43
2022-10-24T03:08:15.298Z,13.73
2022-10-24T03:10:41.730Z,17.67
2022-10-24T03:13:08.121Z,16.73
2022-10-24T03:15:34.633Z,15.77
2022-10-24T03:18:01.097Z,16.13
2022-10-24T03:20:27.544Z,15.43
2022-10-24T03:22:53.948Z,13.77
2022-10-24T03:25:20.390Z,14.60
2022-10-24T03:27:47.026Z,15.30
2022-10-24T03:30:13.796Z,15.20
2022-10-24T03:32:40.295Z,14.20
2022-10-24T03:35:10.330Z,13.27
2022-10-24T03:37:39.656Z,14.43
2022-10-24T03:40:06.522Z,13.37
2022-10-24T03:42:32.904Z,14.07
2022-10-24T03:44:59.397Z,14.17
2022-10-24T03:47:25.824Z,13.93
2022-10-24T03:49:52.235Z,13.60
2022-10-24T03:52:18.693Z,13.77
2022-10-24T03:54:45.146Z,13.10
2022-10-24T03:57:11.716Z,14.83
2022-10-24T03:59:38.605Z,14.37
2022-10-24T04:02:06.099Z,14.33
2022-10-24T04:04:32.634Z,14.20
2022-10-24T04:07:00.443Z,16.47
2022-10-24T04:09:27.391Z,13.70
2022-10-24T04:11:53.821Z,13.67
2022-10-24T04:14:21.129Z,13.80
2022-10-24T04:16:47.602Z,13.87
2022-10-24T04:19:14.018Z,13.63
2022-10-24T04:21:40.501Z,13.53
2022-10-24T04:24:07.050Z,13.30
2022-10-24T04:26:33.461Z,13.87
2022-10-24T04:28:59.877Z,13.83
2022-10-24T04:31:26.380Z,13.50
2022-10-24T04:33:52.776Z,14.47
2022-10-24T04:36:19.256Z,14.40
2022-10-24T04:38:45.665Z,14.03
2022-10-24T04:41:12.584Z,14.20
2022-10-24T04:43:39.511Z,14.20
2022-10-24T04:46:06.197Z,14.40
2022-10-24T04:48:32.843Z,14.37
2022-10-24T04:50:59.290Z,14.10
2022-10-24T04:53:25.717Z,14.07
2022-10-24T04:55:52.144Z,14.90
2022-10-24T04:58:18.645Z,14.73
2022-10-24T05:00:48.704Z,14.40
2022-10-24T05:03:15.432Z,13.63
2022-10-24T05:05:41.838Z,14.53
2022-10-24T05:08:08.271Z,14.17
2022-10-24T05:10:34.744Z,14.23
2022-10-24T05:13:01.195Z,13.40
2022-10-24T05:15:30.007Z,14.43
2022-10-24T05:17:57.054Z,15.23
2022-10-24T05:20:23.844Z,14.97
2022-10-24T05:22:50.325Z,15.03
2022-10-24T05:25:16.742Z,14.93
2022-10-24T05:27:43.145Z,16.57
2022-10-24T05:30:10.033Z,17.33
2022-10-24T05:32:38.819Z,36.70
2022-10-24T05:35:06.492Z,40.63
2022-10-24T05:37:32.919Z,20.60
2022-10-24T05:39:59.353Z,16.10
2022-10-24T05:42:25.768Z,15.80
2022-10-24T05:44:52.218Z,16.23
2022-10-24T05:47:18.871Z,16.90
2022-10-24T05:49:48.401Z,16.23
2022-10-24T05:52:14.940Z,16.43
2022-10-24T05:54:55.435Z,16.70
2022-10-24T05:57:28.367Z,16.33
2022-10-24T05:59:54.752Z,15.67
2022-10-24T06:02:21.486Z,25.53
2022-10-24T06:04:48.409Z,37.63
2022-10-24T06:07:14.826Z,29.77
2022-10-24T06:09:41.748Z,17.13
2022-10-24T06:12:11.653Z,16.30
2022-10-24T06:14:38.974Z,15.73
2022-10-24T06:17:06.359Z,16.33
2022-10-24T06:19:32.932Z,17.77
2022-10-24T06:21:59.407Z,22.27
2022-10-24T06:24:25.834Z,21.60
2022-10-24T06:26:52.279Z,23.53
2022-10-24T06:29:18.800Z,18.37
2022-10-24T06:31:45.292Z,17.17
2022-10-24T06:34:11.804Z,17.63
2022-10-24T06:36:38.299Z,17.20
2022-10-24T06:39:04.855Z,17.80
2022-10-24T06:41:31.324Z,17.30
2022-10-24T06:43:57.730Z,16.93
2022-10-24T06:46:24.326Z,17.00
2022-10-24T06:48:55.038Z,17.30
2022-10-24T06:51:22.089Z,16.47
2022-10-24T06:53:48.662Z,16.87
2022-10-24T06:56:15.249Z,16.13
2022-10-24T06:58:41.663Z,17.57
2022-10-24T07:01:09.407Z,31.73
2022-10-24T07:03:35.999Z,24.80
2022-10-24T07:06:06.719Z,18.90
2022-10-24T07:08:33.122Z,18.23
2022-10-24T07:10:59.679Z,18.10
2022-10-24T07:13:26.160Z,17.60
2022-10-24T07:15:54.428Z,17.27
2022-10-24T07:18:21.210Z,16.63
2022-10-24T07:20:47.663Z,16.40
2022-10-24T07:23:15.080Z,16.90
2022-10-24T07:25:41.651Z,16.57
2022-10-24T07:28:08.966Z,16.97
2022-10-24T07:30:35.429Z,16.50
2022-10-24T07:33:02.087Z,17.50
2022-10-24T07:35:28.578Z,17.63
2022-10-24T07:37:54.978Z,19.00
2022-10-24T07:40:21.498Z,18.33
2022-10-24T07:42:48.740Z,18.93
2022-10-24T07:45:15.218Z,22.53
2022-10-24T07:47:41.984Z,50.00
2022-10-24T07:50:08.920Z,25.90
2022-10-24T07:52:37.701Z,19.40
2022-10-24T07:55:04.428Z,17.93
2022-10-24T07:57:30.886Z,19.20
2022-10-24T07:59:57.347Z,18.30
2022-10-24T08:02:23.768Z,17.90
2022-10-24T08:04:50.222Z,19.47
2022-10-24T08:07:16.651Z,17.70
2022-10-24T08:09:45.575Z,25.37
2022-10-24T08:12:12.020Z,24.30
2022-10-24T08:14:39.511Z,18.97
2022-10-24T08:17:06.090Z,17.87
2022-10-24T08:19:33.132Z,18.33
2022-10-24T08:21:59.656Z,19.07
2022-10-24T08:24:26.901Z,18.53
2022-10-24T08:26:55.878Z,17.53
2022-10-24T08:29:23.420Z,17.77
2022-10-24T08:31:50.669Z,17.30
2022-10-24T08:34:17.831Z,17.37
2022-10-24T08:36:44.591Z,17.57
2022-10-24T08:39:11.270Z,17.73
2022-10-24T08:41:44.224Z,16.97
2022-10-24T08:44:20.760Z,17.10
2022-10-24T08:46:53.334Z,18.13
2022-10-24T08:49:37.027Z,17.67
2022-10-24T08:52:07.170Z,18.37
2022-10-24T08:54:39.326Z,18.03
2022-10-24T08:57:06.577Z,18.40
2022-10-24T08:59:34.647Z,18.83
2022-10-24T09:02:05.036Z,18.10
2022-10-24T09:04:40.639Z,17.97
2022-10-24T09:07:10.158Z,17.90
2022-10-24T09:09:39.880Z,18.83
2022-10-24T09:12:13.938Z,18.60
2022-10-24T09:14:41.862Z,17.80
2022-10-24T09:17:23.025Z,18.50
2022-10-24T09:19:52.601Z,21.27
2022-10-24T09:22:19.644Z,20.10
2022-10-24T09:24:48.850Z,18.77
2022-10-24T09:27:17.780Z,17.60
2022-10-24T09:29:44.401Z,18.17
2022-10-24T09:32:15.172Z,17.73
2022-10-24T09:34:41.766Z,17.30
2022-10-24T09:37:08.315Z,17.13
2022-10-24T09:39:34.848Z,17.50
2022-10-24T09:42:01.973Z,17.27
2022-10-24T09:44:32.667Z,17.60
2022-10-24T09:47:00.252Z,17.30
2022-10-24T09:49:32.018Z,16.63
2022-10-24T09:52:17.697Z,17.20
2022-10-24T09:54:44.852Z,17.63
2022-10-24T09:57:11.294Z,17.17
2022-10-24T09:59:37.847Z,17.63
2022-10-24T10:02:10.548Z,19.20
2022-10-24T10:04:37.634Z,18.03
2022-10-24T10:07:11.116Z,16.97
2022-10-24T10:09:42.402Z,17.53
2022-10-24T10:12:27.891Z,17.10
2022-10-24T10:14:54.634Z,17.13
2022-10-24T10:17:26.213Z,17.80
2022-10-24T10:19:53.605Z,18.33
2022-10-24T10:22:25.379Z,19.20
2022-10-24T10:24:52.223Z,18.50
2022-10-24T10:27:30.748Z,18.70
2022-10-24T10:30:12.699Z,19.10
2022-10-24T10:32:45.391Z,19.40
2022-10-24T10:35:15.712Z,18.27
2022-10-24T10:37:47.983Z,51.87
2022-10-24T10:40:18.600Z,44.77
2022-10-24T10:42:45.482Z,35.63
2022-10-24T10:45:31.213Z,20.43
2022-10-24T10:48:12.800Z,23.17
2022-10-24T10:50:51.797Z,24.97
2022-10-24T10:53:25.773Z,21.97
2022-10-24T10:55:57.879Z,65.67
2022-10-24T11:01:29.724Z,18.27
2022-10-24T11:04:00.168Z,18.87
2022-10-24T11:06:26.786Z,17.80
2022-10-24T11:09:07.998Z,20.00
2022-10-24T11:11:38.467Z,19.73
2022-10-24T11:14:26.458Z,18.67
2022-10-24T11:16:56.901Z,29.20
2022-10-24T11:19:46.357Z,18.10
2022-10-24T11:22:17.048Z,17.57
2022-10-24T11:24:46.521Z,17.87
2022-10-24T11:27:16.281Z,18.33
2022-10-24T11:29:42.796Z,16.83
2022-10-24T11:32:18.907Z,16.90
2022-10-24T11:34:50.693Z,18.87
2022-10-24T11:37:29.869Z,16.63
2022-10-24T11:40:10.201Z,16.43
2022-10-24T11:42:48.912Z,16.30
2022-10-24T11:45:17.695Z,15.10
2022-10-24T11:48:02.370Z,17.93
2022-10-24T11:50:48.249Z,14.93
2022-10-24T11:53:23.683Z,13.67
2022-10-24T11:56:17.341Z,13.87
2022-10-24T11:59:04.375Z,13.50
2022-10-24T12:01:49.299Z,13.67
2022-10-24T12:04:33.194Z,22.53
2022-10-24T12:07:02.638Z,13.57
2022-10-24T12:09:46.715Z,14.53
2022-10-24T12:12:13.126Z,13.83
2022-10-24T12:15:12.041Z,12.07
2022-10-24T12:17:56.928Z,10.53
2022-10-24T12:20:24.477Z,9.37
2022-10-24T12:22:51.905Z,8.70
2022-10-24T12:25:37.668Z,8.77
2022-10-24T12:28:05.762Z,9.63
2022-10-24T12:30:33.589Z,20.90
2022-10-24T12:33:12.456Z,11.10
2022-10-24T12:35:44.540Z,9.70
2022-10-24T12:38:19.249Z,9.27
2022-10-24T12:40:45.874Z,10.47
2022-10-24T12:43:14.949Z,9.47
2022-10-24T12:45:41.437Z,9.50
2022-10-24T12:48:12.672Z,9.50
2022-10-24T12:50:39.124Z,9.50
2022-10-24T12:53:20.250Z,9.60
2022-10-24T12:55:46.692Z,17.93
2022-10-24T12:58:23.542Z,13.27
2022-10-24T13:00:53.942Z,14.73
2022-10-24T13:03:35.760Z,10.23
2022-10-24T13:06:02.376Z,9.50
2022-10-24T13:08:49.330Z,10.50
2022-10-24T13:11:22.670Z,9.20
2022-10-24T13:13:55.588Z,9.70
2022-10-24T13:16:28.354Z,9.47
2022-10-24T13:19:04.352Z,9.73
2022-10-24T13:21:33.294Z,9.77
2022-10-24T13:24:20.010Z,11.03
2022-10-24T13:26:48.163Z,11.00
2022-10-24T13:29:14.835Z,12.87
2022-10-24T13:31:43.337Z,13.37
2022-10-24T13:34:14.978Z,13.03
2022-10-24T13:36:42.535Z,13.27
2022-10-24T13:39:16.759Z,13.90
2022-10-24T13:41:45.081Z,13.93
2022-10-24T13:44:32.981Z,13.40
2022-10-24T13:47:08.582Z,15.70
2022-10-24T13:49:41.580Z,15.17
2022-10-24T13:52:26.701Z,16.47
2022-10-24T13:54:56.823Z,16.60
2022-10-24T13:57:23.515Z,16.77
2022-10-24T13:59:57.907Z,15.83
2022-10-24T14:02:29.798Z,15.20
2022-10-24T14:04:59.316Z,14.87
2022-10-24T14:07:31.485Z,14.17
2022-10-24T14:09:59.905Z,18.30
2022-10-24T14:12:28.177Z,18.07
2022-10-24T14:14:56.488Z,15.73
2022-10-24T14:17:29.011Z,14.90
2022-10-24T14:20:00.231Z,20.53
2022-10-24T14:22:29.403Z,17.37
2022-10-24T14:24:56.648Z,15.87
2022-10-24T14:27:23.568Z,14.27
2022-10-24T14:29:51.678Z,13.77
2022-10-24T14:32:18.850Z,14.53
2022-10-24T14:34:47.349Z,12.97
2022-10-24T14:37:16.349Z,13.60
2022-10-24T14:39:43.581Z,13.80
2022-10-24T14:42:15.253Z,12.77
2022-10-24T14:44:46.483Z,13.97
2022-10-24T14:47:21.867Z,15.63
2022-10-24T14:49:48.866Z,15.50
2022-10-24T14:52:15.593Z,17.47
2022-10-24T14:54:43.877Z,15.10
2022-10-24T14:57:17.634Z,26.83
2022-10-24T14:59:45.962Z,11.40
2022-10-24T15:02:22.296Z,13.80
2022-10-24T15:04:50.993Z,13.17
2022-10-24T15:07:27.238Z,11.20
2022-10-24T15:09:56.013Z,32.13
2022-10-24T15:12:28.458Z,16.00
2022-10-24T15:14:56.996Z,12.73
2022-10-24T15:17:25.862Z,20.60
2022-10-24T15:19:57.982Z,17.77
2022-10-24T15:22:36.253Z,44.37
2022-10-24T15:25:06.713Z,19.80
2022-10-24T15:27:42.803Z,16.27
2022-10-24T15:30:17.714Z,15.33
2022-10-24T15:32:44.905Z,14.37
2022-10-24T15:35:12.931Z,13.77
2022-10-24T15:37:40.316Z,15.57
2022-10-24T15:40:20.324Z,13.37
2022-10-24T15:42:50.454Z,15.33
2022-10-24T15:45:18.049Z,16.40
2022-10-24T15:47:48.266Z,23.93
2022-10-24T15:50:20.171Z,13.77
2022-10-24T15:52:50.740Z,14.23
2022-10-24T15:55:19.261Z,11.80
2022-10-24T15:57:47.164Z,16.57
2022-10-24T16:00:17.840Z,28.20
2022-10-24T16:02:49.543Z,13.50
2022-10-24T16:05:18.090Z,13.30
2022-10-24T16:07:45.681Z,13.20
2022-10-24T16:10:16.601Z,16.57
2022-10-24T16:12:44.246Z,23.17
2022-10-24T16:15:37.463Z,25.13
2022-10-24T16:18:04.330Z,23.33
2022-10-24T16:20:31.655Z,16.93
2022-10-24T16:22:58.458Z,18.23
2022-10-24T16:25:26.961Z,21.23
2022-10-24T16:27:54.136Z,15.87
2022-10-24T16:30:23.089Z,16.53
2022-10-24T16:32:50.217Z,15.73
2022-10-24T16:35:18.563Z,15.50
2022-10-24T16:37:45.100Z,15.00
2022-10-24T16:40:12.777Z,14.03
2022-10-24T16:42:39.314Z,14.63
2022-10-24T16:45:06.452Z,15.73
2022-10-24T16:47:32.987Z,16.23
2022-10-24T16:50:00.096Z,16.13
2022-10-24T16:52:27.158Z,17.30
2022-10-24T16:54:54.486Z,19.50
2022-10-24T16:57:21.435Z,19.07
2022-10-24T16:59:48.470Z,18.77
2022-10-24T17:02:16.745Z,17.53
2022-10-24T17:04:43.872Z,16.00
2022-10-24T17:07:12.337Z,18.57
2022-10-24T17:09:39.885Z,19.30
2022-10-24T17:12:07.298Z,19.47
2022-10-24T17:14:35.155Z,19.60
2022-10-24T17:17:01.856Z,18.70
2022-10-24T17:19:29.661Z,16.63
2022-10-24T17:21:56.260Z,16.83
2022-10-24T17:24:25.889Z,16.43
2022-10-24T17:26:52.774Z,14.83
2022-10-24T17:29:24.315Z,15.40
2022-10-24T17:31:52.795Z,15.67
2022-10-24T17:34:19.937Z,16.10
2022-10-24T17:36:50.218Z,16.27
2022-10-24T17:39:31.811Z,15.60
2022-10-24T17:41:59.032Z,17.20
2022-10-24T17:44:26.383Z,16.47
2022-10-24T17:46:56.047Z,17.23
2022-10-24T17:49:25.481Z,20.30
2022-10-24T17:51:52.487Z,19.17
2022-10-24T17:54:19.528Z,43.83
2022-10-24T17:56:46.681Z,25.77
2022-10-24T17:59:13.754Z,21.03
2022-10-24T18:01:40.934Z,17.20
2022-10-24T18:04:08.485Z,17.50
2022-10-24T18:06:37.269Z,19.10
2022-10-24T18:09:08.798Z,22.03
2022-10-24T18:11:35.898Z,17.13
2022-10-24T18:14:03.515Z,15.60
2022-10-24T18:16:30.944Z,15.67
2022-10-24T18:18:58.181Z,16.70
2022-10-24T18:21:26.125Z,16.97
2022-10-24T18:23:54.125Z,15.30
2022-10-24T18:26:22.925Z,15.33
2022-10-24T18:28:51.654Z,16.03
2022-10-24T18:31:20.020Z,16.47
2022-10-24T18:33:47.581Z,24.90
2022-10-24T18:36:15.865Z,31.70
2022-10-24T18:38:43.222Z,20.23
2022-10-24T18:41:28.768Z,22.13
2022-10-24T18:43:59.573Z,25.03
2022-10-24T18:46:27.092Z,20.63
2022-10-24T18:48:54.341Z,30.30
2022-10-24T18:51:36.517Z,48.17
2022-10-24T18:54:07.574Z,53.03
2022-10-24T18:56:34.770Z,58.63
2022-10-24T18:59:01.887Z,56.80
2022-10-24T19:07:45.318Z,50.50
2022-10-24T19:10:15.702Z,56.80
2022-10-24T19:12:42.226Z,56.63
2022-10-24T19:15:09.098Z,51.33
2022-10-24T19:17:35.850Z,50.83
2022-10-24T19:20:02.975Z,52.37
2022-10-24T19:22:30.581Z,49.77
2022-10-24T19:25:00.634Z,48.10
2022-10-24T19:27:28.299Z,37.60
2022-10-24T19:29:55.455Z,22.50
2022-10-24T19:32:23.455Z,49.43
2022-10-24T19:34:50.285Z,18.57
2022-10-24T19:37:17.532Z,16.33
2022-10-24T19:39:44.823Z,12.87
2022-10-24T19:42:13.117Z,13.03
2022-10-24T19:44:43.239Z,14.63
2022-10-24T19:47:10.685Z,12.30
2022-10-24T19:49:37.614Z,12.40
2022-10-24T19:52:04.876Z,12.33
2022-10-24T19:54:32.432Z,12.03
2022-10-24T19:56:59.512Z,12.03
2022-10-24T19:59:32.229Z,12.37
2022-10-24T20:01:59.248Z,12.37
2022-10-24T20:04:26.692Z,12.20
2022-10-24T20:06:54.247Z,13.87
2022-10-24T20:09:21.575Z,12.53
2022-10-24T20:11:48.849Z,12.73
2022-10-24T20:14:15.904Z,11.60
2022-10-24T20:16:42.919Z,11.57
2022-10-24T20:19:09.928Z,12.53
2022-10-24T20:21:37.859Z,12.03
2022-10-24T20:24:04.670Z,11.80
2022-10-24T20:26:33.668Z,14.07
2022-10-24T20:29:00.746Z,16.03
2022-10-24T20:31:35.391Z,11.80
2022-10-24T20:34:07.899Z,11.37
2022-10-24T20:36:35.782Z,11.53
2022-10-24T20:39:02.658Z,21.73
2022-10-24T20:41:29.747Z,30.30
2022-10-24T20:43:56.876Z,29.07
2022-10-24T20:46:23.548Z,11.07
2022-10-24T20:48:50.559Z,10.27
2022-10-24T20:51:19.137Z,10.87
2022-10-24T20:53:46.067Z,11.50
2022-10-24T20:56:17.477Z,10.57
2022-10-24T20:58:44.728Z,9.83
2022-10-24T21:01:13.210Z,10.10
2022-10-24T21:03:40.284Z,10.57
2022-10-24T21:06:14.162Z,9.87
2022-10-24T21:08:40.734Z,9.80
2022-10-24T21:11:07.475Z,10.37
2022-10-24T21:13:34.872Z,10.13
2022-10-24T21:16:02.410Z,9.40
2022-10-24T21:18:29.049Z,9.57
2022-10-24T21:20:55.533Z,9.43
2022-10-24T21:23:22.415Z,9.33
2022-10-24T21:25:48.925Z,8.47
2022-10-24T21:28:15.571Z,8.37
2022-10-24T21:30:42.044Z,8.50
2022-10-24T21:33:10.718Z,7.70
2022-10-24T21:35:40.326Z,8.03
2022-10-24T21:38:06.862Z,8.07
2022-10-24T21:40:33.328Z,8.60
2022-10-24T21:43:00.414Z,8.60
2022-10-24T21:45:27.011Z,8.90
2022-10-24T21:47:53.438Z,9.90
2022-10-24T21:50:19.881Z,9.67
2022-10-24T21:52:46.507Z,8.93
2022-10-24T21:55:13.158Z,8.97
2022-10-24T21:57:39.624Z,8.43
2022-10-24T22:00:06.940Z,9.40
2022-10-24T22:02:33.553Z,8.67
2022-10-24T22:05:00.110Z,8.87
2022-10-24T22:09:58.104Z,8.20
2022-10-24T22:12:25.199Z,7.67
2022-10-24T22:14:51.665Z,7.57
2022-10-24T22:17:18.125Z,7.83
2022-10-24T22:19:44.648Z,9.33
2022-10-24T22:22:11.092Z,9.13
2022-10-24T22:24:37.552Z,8.83
2022-10-24T22:27:03.964Z,8.50
2022-10-24T22:29:30.439Z,8.57
2022-10-24T22:31:57.007Z,9.00
2022-10-24T22:34:24.489Z,7.53
2022-10-24T22:37:00.364Z,7.63
2022-10-24T22:39:27.230Z,7.50
2022-10-24T22:41:54.073Z,7.23
2022-10-24T22:44:21.174Z,6.67
2022-10-24T22:46:50.572Z,6.97
2022-10-24T22:49:22.902Z,6.30
2022-10-24T22:51:49.546Z,6.17
2022-10-24T22:54:19.729Z,6.50
2022-10-24T22:56:46.343Z,6.53
2022-10-24T22:59:12.920Z,5.63
2022-10-24T23:01:49.699Z,5.53
2022-10-24T23:04:22.276Z,5.73
2022-10-24T23:06:51.597Z,5.73
2022-10-24T23:09:18.098Z,6.43
2022-10-24T23:11:44.689Z,5.97
2022-10-24T23:14:11.760Z,6.10
2022-10-24T23:16:51.318Z,6.80
2022-10-24T23:19:19.432Z,6.33
2022-10-24T23:21:51.185Z,6.10
2022-10-24T23:24:17.751Z,5.70
2022-10-24T23:26:49.643Z,6.10
2022-10-24T23:29:22.154Z,6.17
2022-10-24T23:31:48.696Z,5.90
2022-10-24T23:34:15.382Z,5.57
2022-10-24T23:36:43.357Z,5.00
2022-10-24T23:39:12.033Z,5.27
2022-10-24T23:41:38.662Z,4.53
2022-10-24T23:44:06.658Z,4.73
2022-10-24T23:46:37.723Z,4.73
2022-10-24T23:49:20.361Z,4.80
2022-10-24T23:52:06.776Z,4.90
2022-10-24T23:54:33.759Z,5.17
2022-10-24T23:57:00.537Z,4.57
2022-10-24T23:59:27.032Z,4.90
